Main page
METAR-TAF:

METAR-TAF

Airports :

RAF Topcliffe

Topcliffe, England

latitude: 54-12N, longitude: 001-23W, elevation: 28 m

Current weather observation

The report was made 1 hour and 4 minutes ago, at 05:50 UTC
Wind 9 kt from the Northwest
Temperature 7°C
Humidity 87%
Pressure 994 hPa
Visibility 10 km or more

METAR: EGXZ 050550Z AUTO 32009KT 9999 FEW070/// BKN120/// 07/05 Q0994

Time: 07:54 (06:54 UTC)


TAF: missing

Weather observations and forecasts of more than 4000 airports (METAR and TAF reports).

The available stations are represented by yellow and red dots on the map.

Hover mouse over dot to see the name of the station.

Then click to see weather observations and forecasts.

To change the map : click on the green buttons with a black cross to zoom in, on the green button with a dash to zoom out, or on the green arrows for adjacent maps.


METAR-TAF: